Time;durP1;ratioP1;P1;durP2;ratioP2;P2;SDS_P1;SDS_P2;PMS_P1;PMS_P2;Temp;Humidity;BMP_temperature;BMP_pressure;BME280_temperature;BME280_humidity;BME280_pressure;Samples;Min_cycle;Max_cycle;Signal;HPM_P1;HPM_P2
2023/01/22 00:00:28;;;;;;;4.85;3.53;;;;;;;14.86;75.85;103590.78;4832037;29;20038;-80
2023/01/22 00:02:53;;;;;;;5.25;3.60;;;;;;;14.85;75.86;103589.00;4846881;29;20044;-80
2023/01/22 00:05:18;;;;;;;4.90;3.63;;;;;;;14.88;75.61;103593.44;4847003;29;20052;-80
2023/01/22 00:07:44;;;;;;;4.50;3.35;;;;;;;14.89;75.61;103592.59;4831753;29;20409;-80
2023/01/22 00:10:10;;;;;;;8.02;3.20;;;;;;;14.89;75.48;103590.91;4831176;29;20105;-80
2023/01/22 00:12:35;;;;;;;6.18;3.50;;;;;;;14.94;75.32;103598.91;4831414;29;20121;-79
2023/01/22 00:15:01;;;;;;;5.40;3.42;;;;;;;14.94;75.23;103588.53;4816391;29;20183;-81
2023/01/22 00:17:26;;;;;;;5.50;3.20;;;;;;;14.94;75.00;103594.59;4815840;29;20553;-81
2023/01/22 00:19:52;;;;;;;3.92;3.50;;;;;;;14.95;75.09;103596.38;4831119;29;20050;-77
2023/01/22 00:22:17;;;;;;;4.80;3.17;;;;;;;15.00;74.96;103592.28;4845685;29;20048;-79
2023/01/22 00:24:43;;;;;;;3.40;3.05;;;;;;;15.00;74.89;103593.97;4830563;29;20052;-80
2023/01/22 00:27:08;;;;;;;3.63;2.95;;;;;;;14.99;74.66;103587.91;4830750;29;20068;-78
2023/01/22 00:29:33;;;;;;;5.05;3.30;;;;;;;15.02;74.62;103584.56;4845656;29;20441;-79
2023/01/22 00:31:59;;;;;;;4.65;2.90;;;;;;;15.01;74.49;103586.28;4846136;29;20038;-80
2023/01/22 00:34:24;;;;;;;4.95;3.00;;;;;;;15.05;74.35;103591.59;4815304;29;20045;-81
2023/01/22 00:36:50;;;;;;;4.78;2.90;;;;;;;15.04;74.32;103580.34;4815318;29;20044;-78
2023/01/22 00:39:15;;;;;;;4.03;2.80;;;;;;;15.07;74.50;103589.94;4815286;29;20511;-79
2023/01/22 00:41:41;;;;;;;3.65;3.00;;;;;;;15.05;73.99;103594.19;4846454;29;20120;-78
2023/01/22 00:44:07;;;;;;;4.03;3.00;;;;;;;15.09;74.00;103590.91;4830250;29;20042;-77
2023/01/22 00:46:32;;;;;;;3.88;2.85;;;;;;;15.09;73.91;103586.63;4815113;29;20061;-78
2023/01/22 00:48:58;;;;;;;3.47;2.80;;;;;;;15.10;73.84;103582.31;4845534;29;20059;-79
2023/01/22 00:51:23;;;;;;;3.22;2.70;;;;;;;15.13;73.98;103587.63;4845201;29;20084;-81
2023/01/22 00:53:49;;;;;;;3.58;2.60;;;;;;;15.10;73.57;103580.59;4815436;29;20175;-77
2023/01/22 00:56:14;;;;;;;3.72;2.60;;;;;;;15.13;73.62;103580.72;4845279;29;20403;-79
2023/01/22 00:58:40;;;;;;;3.10;2.53;;;;;;;15.15;73.64;103576.50;4829991;29;20045;-78
2023/01/22 01:01:06;;;;;;;2.65;2.13;;;;;;;15.13;73.21;103577.25;4845425;29;20090;-79
2023/01/22 01:03:33;;;;;;;3.20;2.50;;;;;;;15.16;73.16;103574.81;4814504;29;20458;-79
2023/01/22 01:06:03;;;;;;;4.90;2.50;;;;;;;15.17;73.14;103563.59;4845477;29;20042;-78
2023/01/22 01:08:32;;;;;;;4.00;2.55;;;;;;;15.20;73.09;103571.53;4854290;29;20041;-86
2023/01/22 01:11:01;;;;;;;2.80;2.28;;;;;;;15.20;72.57;103571.53;4858900;29;20034;-86
2023/01/22 01:13:29;;;;;;;2.60;2.10;;;;;;;15.19;72.83;103562.84;4862044;29;20033;-87
2023/01/22 01:16:04;;;;;;;2.88;2.53;;;;;;;15.20;72.84;103554.25;4863431;29;20132;-86
2023/01/22 01:18:30;;;;;;;3.42;2.30;;;;;;;15.23;72.48;103566.47;4858803;29;20045;-87
2023/01/22 01:20:57;;;;;;;2.72;2.10;;;;;;;15.25;72.43;103564.84;4859403;29;20054;-87
2023/01/22 01:23:24;;;;;;;2.72;1.95;;;;;;;15.23;72.34;103556.97;4861141;29;20052;-86
2023/01/22 01:25:50;;;;;;;3.22;2.33;;;;;;;15.26;72.35;103557.94;5164952;24;21305;-86
2023/01/22 01:28:16;;;;;;;2.35;2.03;;;;;;;15.27;72.21;103558.00;4881002;29;20045;-85
2023/01/22 01:33:16;;;;;;;4.40;2.15;;;;;;;15.30;72.16;103563.31;4863444;29;20061;-86
2023/01/22 01:35:44;;;;;;;2.42;2.05;;;;;;;15.29;71.95;103555.50;4848447;29;20101;-85
2023/01/22 01:38:10;;;;;;;2.28;1.88;;;;;;;15.30;71.86;103552.06;4828662;29;20041;-87
2023/01/22 01:40:44;;;;;;;2.70;2.10;;;;;;;15.30;71.70;103555.53;4862923;29;20057;-86
2023/01/22 01:43:16;;;;;;;;;;;;;;;15.32;71.68;103551.31;4847728;29;20101;-85
2023/01/22 01:48:30;;;;;;;2.55;1.92;;;;;;;15.36;71.28;103552.34;4934712;23;20064;-84
2023/01/22 01:51:10;;;;;;;2.30;2.00;;;;;;;15.37;71.06;103543.72;4867525;29;20033;-86
2023/01/22 01:53:38;;;;;;;3.00;2.00;;;;;;;15.37;71.23;103546.31;4866141;29;20075;-86
2023/01/22 01:56:10;;;;;;;2.60;2.10;;;;;;;15.37;71.02;103555.00;4861565;29;20069;-85
2023/01/22 01:58:38;;;;;;;2.90;2.10;;;;;;;15.36;71.08;103550.63;4861928;29;20029;-85
2023/01/22 02:01:10;;;;;;;2.38;1.75;;;;;;;15.36;71.08;103544.56;4865636;29;20112;-85
2023/01/22 02:03:36;;;;;;;2.53;1.85;;;;;;;15.36;71.01;103540.25;4861154;29;20040;-86
2023/01/22 02:06:02;;;;;;;2.80;2.17;;;;;;;15.36;70.93;103540.25;4862843;29;20033;-86
2023/01/22 02:08:28;;;;;;;2.33;1.85;;;;;;;15.37;70.74;103549.81;4863320;29;20046;-87
2023/01/22 02:10:54;;;;;;;2.28;2.00;;;;;;;15.36;70.77;103531.56;4862910;29;20098;-86
2023/01/22 02:13:26;;;;;;;2.15;1.80;;;;;;;15.35;70.55;103534.97;4860853;29;20372;-86
2023/01/22 02:15:52;;;;;;;2.15;1.83;;;;;;;15.35;70.56;103525.50;4860560;29;20060;-86
2023/01/22 02:18:17;;;;;;;2.47;1.83;;;;;;;15.35;70.50;103522.00;4862234;29;20041;-86
2023/01/22 02:20:57;;;;;;;2.05;1.52;;;;;;;15.35;70.42;103517.72;4854752;29;20041;-85
2023/01/22 02:23:24;;;;;;;2.13;1.75;;;;;;;15.36;70.41;103523.78;4862894;29;20041;-86
2023/01/22 02:25:50;;;;;;;2.20;1.70;;;;;;;15.35;70.21;103514.22;4876805;29;20390;-86
2023/01/22 02:28:16;;;;;;;1.90;1.65;;;;;;;15.35;70.25;103509.94;4861515;29;20041;-85
2023/01/22 02:30:43;;;;;;;1.95;1.55;;;;;;;15.35;70.22;103507.34;4861393;29;20037;-85
2023/01/22 02:33:09;;;;;;;2.55;1.73;;;;;;;15.36;70.19;103505.63;4864371;29;20041;-85
2023/01/22 02:35:35;;;;;;;2.22;1.70;;;;;;;15.34;70.15;103507.28;4882987;29;20024;-86
2023/01/22 02:38:02;;;;;;;2.33;1.70;;;;;;;15.34;69.94;103512.47;4867410;29;20034;-84
2023/01/22 02:40:28;;;;;;;1.83;1.60;;;;;;;15.35;69.71;103512.53;4868020;29;20021;-86
2023/01/22 02:42:55;;;;;;;1.92;1.52;;;;;;;15.37;69.91;103507.38;4866575;29;20037;-86
2023/01/22 02:45:24;;;;;;;2.92;1.70;;;;;;;15.38;69.65;103506.59;4865533;29;20037;-84
2023/01/22 02:47:50;;;;;;;2.30;1.63;;;;;;;15.39;69.52;103504.03;4858398;29;20049;-85
2023/01/22 02:50:16;;;;;;;1.98;1.40;;;;;;;15.40;69.19;103504.94;4860543;29;20041;-84
2023/01/22 02:52:44;;;;;;;1.80;1.50;;;;;;;15.40;69.06;103497.16;4861597;29;20033;-85
2023/01/22 02:55:10;;;;;;;2.47;1.50;;;;;;;15.41;69.35;103494.59;4856696;29;20070;-84
2023/01/22 02:57:36;;;;;;;2.78;1.40;;;;;;;15.42;69.07;103501.59;4856178;29;20050;-84
2023/01/22 03:00:03;;;;;;;1.80;1.33;;;;;;;15.43;68.93;103497.28;4859157;29;20536;-84
2023/01/22 03:02:30;;;;;;;1.48;1.23;;;;;;;15.44;68.83;103501.66;4872792;29;20037;-82
2023/01/22 03:05:02;;;;;;;2.60;1.30;;;;;;;15.44;68.83;103496.47;4836599;29;20109;-84
2023/01/22 03:07:43;;;;;;;1.77;1.40;;;;;;;15.47;68.68;103506.97;4854688;29;20037;-84
2023/01/22 03:10:12;;;;;;;2.47;1.42;;;;;;;15.47;68.52;103496.59;4855506;29;20037;-83
2023/01/22 03:23:33;;;;;;;1.40;1.10;;;;;;;15.51;68.17;103493.28;4871374;29;20099;-84
2023/01/22 03:25:58;;;;;;;1.55;1.20;;;;;;;15.52;67.86;103496.75;4850695;29;20049;-84
2023/01/22 03:28:25;;;;;;;1.58;1.00;;;;;;;15.53;67.84;103493.38;4833282;29;20052;-84
2023/01/22 03:30:51;;;;;;;1.40;1.10;;;;;;;15.54;67.93;103489.94;4862553;29;20481;-84
2023/01/22 03:33:17;;;;;;;1.70;1.20;;;;;;;15.54;67.78;103488.22;4866564;29;20017;-85
2023/01/22 03:35:45;;;;;;;2.00;1.25;;;;;;;15.54;67.47;103489.94;4847256;29;20041;-84
2023/01/22 03:38:10;;;;;;;1.35;1.10;;;;;;;15.55;67.66;103491.72;4877684;29;20083;-82
2023/01/22 03:40:36;;;;;;;1.52;1.05;;;;;;;15.56;67.31;103481.38;4841577;29;20496;-82
2023/01/22 03:43:01;;;;;;;1.60;1.00;;;;;;;15.56;67.33;103490.88;4854812;29;20044;-82
2023/01/22 03:45:27;;;;;;;1.55;1.02;;;;;;;15.57;67.22;103485.75;4854800;29;20074;-83
2023/01/22 03:47:53;;;;;;;1.88;1.08;;;;;;;15.58;67.15;103487.53;4837020;29;20136;-83
2023/01/22 03:50:19;;;;;;;1.35;0.98;;;;;;;15.60;67.23;103482.41;4870337;29;20069;-84
2023/01/22 03:52:44;;;;;;;1.35;0.95;;;;;;;15.59;67.05;103481.53;4853828;29;20091;-83
2023/01/22 03:55:10;;;;;;;1.70;1.10;;;;;;;15.61;66.78;103486.75;4838542;29;20046;-84
2023/01/22 03:57:35;;;;;;;1.30;1.10;;;;;;;15.60;66.72;103488.47;4872795;29;20062;-83
2023/01/22 04:00:06;;;;;;;1.20;0.90;;;;;;;15.61;66.78;103479.88;4855023;29;20041;-82
2023/01/22 04:02:31;;;;;;;1.58;1.10;;;;;;;15.62;66.65;103486.81;4855313;29;20044;-82
2023/01/22 04:04:57;;;;;;;1.20;0.93;;;;;;;15.64;66.40;103484.31;4838351;29;20041;-83
2023/01/22 04:07:22;;;;;;;1.55;1.00;;;;;;;15.64;66.60;103486.91;4860772;29;20041;-84
2023/01/22 04:09:47;;;;;;;1.40;1.00;;;;;;;15.64;66.45;103482.59;4843700;29;20034;-84
2023/01/22 04:12:13;;;;;;;1.20;0.80;;;;;;;15.64;66.31;103481.72;4835759;29;20026;-84
2023/01/22 04:14:38;;;;;;;1.15;0.88;;;;;;;15.64;66.38;103482.59;4866227;29;20047;-84
2023/01/22 04:17:04;;;;;;;1.05;0.95;;;;;;;15.65;66.16;103480.88;4883095;29;20057;-83
2023/01/22 04:19:29;;;;;;;1.85;1.10;;;;;;;15.66;66.08;103482.66;4866012;29;20041;-83
2023/01/22 04:21:54;;;;;;;1.60;1.13;;;;;;;15.66;65.95;103477.47;4860278;29;20033;-83
2023/01/22 04:24:20;;;;;;;1.23;0.90;;;;;;;15.64;66.24;103474.81;4841160;29;20101;-83
2023/01/22 04:26:45;;;;;;;1.20;0.90;;;;;;;15.65;66.00;103470.47;4857389;29;20033;-83
2023/01/22 04:29:11;;;;;;;1.73;1.00;;;;;;;15.65;65.92;103467.88;4824386;29;20132;-82
2023/01/22 04:31:36;;;;;;;1.10;1.00;;;;;;;15.64;65.77;103472.19;4873405;29;20040;-82
2023/01/22 04:34:01;;;;;;;1.63;0.98;;;;;;;15.64;65.84;103467.00;4824887;29;20038;-82
2023/01/22 04:36:27;;;;;;;1.50;1.00;;;;;;;15.63;65.74;103466.94;4840701;29;20512;-83
2023/01/22 04:38:52;;;;;;;1.50;0.98;;;;;;;15.63;65.51;103464.34;4840887;29;20042;-82
2023/01/22 04:41:17;;;;;;;1.08;0.90;;;;;;;15.61;65.48;103461.72;4840375;29;20076;-83
2023/01/22 04:43:43;;;;;;;2.28;1.00;;;;;;;15.63;65.40;103467.84;4839017;29;20029;-82
2023/01/22 04:46:08;;;;;;;1.27;0.95;;;;;;;15.63;65.52;103459.16;4838433;29;20128;-82
2023/01/22 04:48:34;;;;;;;0.95;0.77;;;;;;;15.62;65.32;103460.88;4822493;29;20068;-82
2023/01/22 04:50:59;;;;;;;1.35;0.90;;;;;;;15.62;65.12;103462.59;4838431;29;20093;-84
2023/01/22 04:53:25;;;;;;;1.13;0.93;;;;;;;15.62;65.21;103457.41;4826429;29;20040;-84
2023/01/22 04:55:50;;;;;;;2.22;0.85;;;;;;;15.62;65.06;103460.88;4827966;29;20045;-84
2023/01/22 04:58:16;;;;;;;1.10;0.88;;;;;;;15.62;65.09;103458.28;4842073;29;20048;-84
2023/01/22 05:00:41;;;;;;;1.48;1.00;;;;;;;15.64;64.85;103455.75;4856843;29;20049;-84
2023/01/22 05:03:07;;;;;;;0.75;0.68;;;;;;;15.64;64.99;103447.97;4842640;29;20037;-84
2023/01/22 05:05:33;;;;;;;4.38;0.90;;;;;;;15.66;64.75;103442.81;4842477;29;20056;-84
2023/01/22 05:07:58;;;;;;;0.93;0.82;;;;;;;15.66;64.75;103448.91;4874797;29;20037;-84
2023/01/22 05:10:24;;;;;;;1.40;0.90;;;;;;;15.67;64.63;103448.06;4857768;29;20044;-84
2023/01/22 05:12:50;;;;;;;1.00;0.80;;;;;;;15.67;64.57;103437.69;4824023;29;20086;-84
2023/01/22 05:15:16;;;;;;;1.60;1.08;;;;;;;15.68;64.51;103446.34;4857244;29;20037;-84
2023/01/22 05:17:41;;;;;;;0.93;0.70;;;;;;;15.69;64.36;103448.16;4857540;29;20037;-85
2023/01/22 05:20:08;;;;;;;1.20;0.80;;;;;;;15.70;64.28;103449.91;4839227;29;20042;-82
2023/01/22 05:22:33;;;;;;;1.00;0.80;;;;;;;15.70;64.41;103456.00;4835836;29;20488;-83
2023/01/22 05:24:59;;;;;;;1.42;1.00;;;;;;;15.72;63.96;103456.06;4849814;29;20044;-84
2023/01/22 05:27:24;;;;;;;0.88;0.70;;;;;;;15.71;63.94;103455.19;4850617;29;20057;-83
2023/01/22 05:29:49;;;;;;;1.40;0.90;;;;;;;15.73;63.66;103463.94;4819899;29;20156;-83
2023/01/22 05:32:15;;;;;;;0.70;0.65;;;;;;;15.73;63.83;103463.06;4835082;29;20041;-82
2023/01/22 05:34:40;;;;;;;1.02;0.77;;;;;;;15.74;63.61;103459.63;4819439;29;20039;-83
2023/01/22 05:37:06;;;;;;;1.50;0.80;;;;;;;15.75;63.53;103466.59;4834326;29;20037;-82
2023/01/22 05:39:31;;;;;;;0.98;0.63;;;;;;;15.75;63.36;103470.06;4833773;29;20097;-83
2023/01/22 05:41:57;;;;;;;0.93;0.70;;;;;;;15.76;63.36;103470.94;4833816;29;20068;-83
2023/01/22 05:44:22;;;;;;;0.80;0.60;;;;;;;15.77;63.06;103472.75;4849137;29;20124;-82
2023/01/22 05:46:48;;;;;;;0.90;0.80;;;;;;;15.77;62.98;103467.56;4849359;29;20064;-82
2023/01/22 05:49:13;;;;;;;0.70;0.60;;;;;;;15.78;63.09;103469.31;4819256;29;20051;-82
2023/01/22 05:51:39;;;;;;;0.70;0.60;;;;;;;15.78;62.87;103477.97;4849771;29;20061;-83
2023/01/22 05:54:04;;;;;;;1.30;0.70;;;;;;;15.79;62.68;103482.34;4849651;29;20039;-84
2023/01/22 05:56:30;;;;;;;0.75;0.60;;;;;;;15.80;62.82;103483.25;4865383;29;20433;-83
2023/01/22 05:58:56;;;;;;;0.80;0.70;;;;;;;15.80;62.68;103488.44;4848550;29;20037;-82
2023/01/22 06:01:21;;;;;;;0.60;0.50;;;;;;;15.81;62.70;103488.50;4833840;29;20080;-83
2023/01/22 06:03:47;;;;;;;0.90;0.70;;;;;;;15.81;62.59;103485.03;4849606;29;20074;-84
2023/01/22 06:06:13;;;;;;;0.77;0.63;;;;;;;15.82;62.33;103486.78;4820363;29;20072;-84
2023/01/22 06:08:39;;;;;;;1.02;0.75;;;;;;;15.83;62.33;103491.16;4850361;29;20105;-82
2023/01/22 06:11:12;;;;;;;0.80;0.70;;;;;;;15.82;62.21;103487.66;4849132;29;20144;-82
2023/01/22 06:13:38;;;;;;;1.25;0.63;;;;;;;15.84;62.15;103488.63;4848903;29;20072;-82
2023/01/22 06:16:04;;;;;;;1.10;0.60;;;;;;;15.86;61.96;103493.00;4834216;29;20045;-83
2023/01/22 06:18:30;;;;;;;1.10;0.70;;;;;;;15.84;62.00;103486.00;4849718;29;20497;-83
2023/01/22 06:21:00;;;;;;;0.90;0.60;;;;;;;15.86;61.83;103496.47;4850777;29;20044;-82
2023/01/22 06:23:26;;;;;;;0.93;0.65;;;;;;;15.86;61.73;103500.78;4866574;29;20034;-83
2023/01/22 06:25:53;;;;;;;0.85;0.70;;;;;;;15.87;61.77;103494.75;4849902;29;20049;-83
2023/01/22 06:28:19;;;;;;;0.98;0.63;;;;;;;15.88;61.52;103496.53;4848498;29;20045;-83
2023/01/22 06:30:44;;;;;;;0.70;0.65;;;;;;;15.89;61.53;103498.31;4854530;29;20064;-83
2023/01/22 06:33:10;;;;;;;0.80;0.65;;;;;;;15.90;61.40;103494.91;4850228;29;20045;-82
2023/01/22 06:35:35;;;;;;;0.70;0.70;;;;;;;15.90;61.46;103492.31;4848690;29;20041;-83
2023/01/22 06:38:01;;;;;;;1.00;0.60;;;;;;;15.90;61.26;103485.38;4817968;29;20044;-83
2023/01/22 06:40:26;;;;;;;1.00;0.50;;;;;;;15.90;61.25;103487.97;4849057;29;20065;-82
2023/01/22 06:42:51;;;;;;;0.68;0.60;;;;;;;15.91;61.17;103491.47;4817981;29;20049;-83
2023/01/22 06:45:17;;;;;;;1.52;0.57;;;;;;;15.93;60.97;103487.22;4832154;29;20037;-82
2023/01/22 06:47:43;;;;;;;0.88;0.63;;;;;;;15.93;60.79;103487.22;4816982;29;20053;-82
2023/01/22 06:50:10;;;;;;;0.63;0.50;;;;;;;15.93;60.81;103485.50;4850888;29;20037;-81
2023/01/22 06:52:35;;;;;;;0.60;0.50;;;;;;;15.93;60.73;103488.09;4849317;29;20033;-80
2023/01/22 06:55:00;;;;;;;0.77;0.60;;;;;;;15.94;60.77;103487.28;4833877;29;20113;-80
2023/01/22 06:57:26;;;;;;;0.43;0.43;;;;;;;15.96;60.66;103487.31;4819135;29;20046;-78
2023/01/22 06:59:51;;;;;;;1.13;0.68;;;;;;;15.97;60.47;103489.09;4820911;29;20485;-79
2023/01/22 07:02:18;;;;;;;1.10;0.73;;;;;;;15.99;60.49;103484.88;4852144;29;20045;-78
2023/01/22 07:04:47;;;;;;;0.65;0.60;;;;;;;15.99;60.19;103477.94;4851187;29;20045;-84
2023/01/22 07:07:13;;;;;;;0.98;0.52;;;;;;;16.00;60.22;103479.75;4865760;29;20053;-84
2023/01/22 07:09:38;;;;;;;2.40;0.77;;;;;;;16.03;59.99;103477.25;4866436;29;20033;-83
2023/01/22 07:12:04;;;;;;;2.55;0.55;;;;;;;16.07;59.80;103485.16;4867666;29;20041;-84
2023/01/22 07:14:30;;;;;;;2.72;0.70;;;;;;;16.06;59.86;103486.88;4865391;29;20029;-83
2023/01/22 07:16:58;;;;;;;3.72;0.70;;;;;;;16.08;59.52;103493.00;4864786;29;20086;-83
2023/01/22 07:19:24;;;;;;;1.65;0.75;;;;;;;16.10;59.52;103485.28;4860759;29;20074;-82
2023/01/22 07:21:49;;;;;;;1.05;0.70;;;;;;;16.11;59.35;103484.44;4857105;29;20033;-82
2023/01/22 07:24:15;;;;;;;0.98;0.70;;;;;;;16.10;59.41;103491.34;4841736;29;20041;-83
2023/01/22 07:26:42;;;;;;;0.95;0.60;;;;;;;16.09;59.39;103492.19;4857332;29;20044;-83
2023/01/22 07:29:08;;;;;;;2.65;0.60;;;;;;;16.09;59.36;103486.09;4857326;29;20036;-81
2023/01/22 07:31:34;;;;;;;11.27;3.13;;;;;;;16.13;59.40;103483.66;4861151;29;20085;-84
2023/01/22 07:39:21;;;;;;;7.18;2.30;;;;;;;16.15;59.21;103501.91;5009771;23;20114;-83
2023/01/22 07:41:46;;;;;;;7.70;2.00;;;;;;;16.13;59.15;103500.97;4875740;29;20037;-84
2023/01/22 07:44:41;;;;;;;11.05;2.10;;;;;;;16.13;59.13;103506.16;4876991;29;20088;-84
2023/01/22 07:46:58;;;;;;;8.70;2.38;;;;;;;16.18;58.98;103509.84;4866486;29;20049;-80
2023/01/22 07:49:23;;;;;;;36.40;10.20;;;;;;;16.21;58.72;103505.63;4852184;29;20045;-80
2023/01/22 07:51:49;;;;;;;51.55;14.30;;;;;;;16.22;58.89;103519.50;4868535;29;20090;-82
2023/01/22 07:54:14;;;;;;;58.03;15.40;;;;;;;16.19;58.81;103519.41;4866258;29;20037;-80
2023/01/22 07:56:42;;;;;;;45.22;12.75;;;;;;;16.17;58.98;103524.53;4859021;29;20105;-83
2023/01/22 07:59:08;;;;;;;46.47;11.18;;;;;;;16.15;58.80;103522.72;4860040;29;20033;-84
2023/01/22 08:01:33;;;;;;;36.35;9.07;;;;;;;16.13;58.90;103527.84;4882470;29;20048;-87
2023/01/22 08:03:59;;;;;;;28.08;8.23;;;;;;;16.11;58.84;103526.00;4873137;29;20042;-82
2023/01/22 08:06:27;;;;;;;29.75;7.70;;;;;;;16.11;58.92;103529.47;4866405;29;20037;-88
2023/01/22 08:08:53;;;;;;;21.05;7.35;;;;;;;16.11;58.62;103528.59;4885301;29;20066;-88
2023/01/22 08:11:19;;;;;;;26.02;6.30;;;;;;;16.10;58.82;103530.31;4886182;29;20034;-85
2023/01/22 08:13:44;;;;;;;18.25;5.70;;;;;;;16.10;58.82;103537.25;4884466;29;20033;-88
2023/01/22 08:16:13;;;;;;;19.27;6.13;;;;;;;16.09;58.99;103533.75;4884495;29;20041;-87
2023/01/22 08:18:39;;;;;;;22.88;6.57;;;;;;;16.09;58.99;103538.03;4884693;29;20017;-87
2023/01/22 08:21:05;;;;;;;19.00;5.47;;;;;;;16.08;58.74;103534.56;4884650;29;20161;-87
2023/01/22 08:23:33;;;;;;;20.90;5.10;;;;;;;16.10;58.63;103534.63;4884538;29;20026;-87
2023/01/22 08:26:00;;;;;;;16.90;5.63;;;;;;;16.10;58.62;103537.25;4884859;29;20104;-87
2023/01/22 08:28:31;;;;;;;14.27;5.00;;;;;;;16.09;58.44;103538.97;4885032;29;20029;-87
2023/01/22 08:31:02;;;;;;;12.73;4.80;;;;;;;16.10;58.62;103532.91;4885001;29;20754;-87
2023/01/22 08:33:31;;;;;;;17.10;5.55;;;;;;;16.09;58.59;103536.34;4882617;29;20503;-88
2023/01/22 08:35:59;;;;;;;13.68;5.22;;;;;;;16.11;58.46;103542.47;4879602;29;20041;-87
2023/01/22 08:38:25;;;;;;;14.07;5.00;;;;;;;16.11;58.17;103541.59;4866873;29;20053;-87
2023/01/22 08:40:52;;;;;;;13.35;4.53;;;;;;;16.11;58.53;103549.38;4869583;29;20069;-85
2023/01/22 08:43:18;;;;;;;16.25;5.00;;;;;;;16.10;58.34;103551.09;4868624;29;20033;-86
2023/01/22 08:45:47;;;;;;;14.68;4.60;;;;;;;16.12;58.23;103548.56;4874301;29;20044;-87
2023/01/22 08:48:13;;;;;;;13.18;4.60;;;;;;;16.11;58.19;103563.25;4881443;29;20037;-85
2023/01/22 08:50:41;;;;;;;12.35;5.03;;;;;;;16.11;58.09;103554.56;4880478;29;20481;-84
2023/01/22 08:53:06;;;;;;;11.10;4.15;;;;;;;16.11;58.03;103555.47;4865739;29;20068;-85
2023/01/22 08:55:32;;;;;;;10.32;4.53;;;;;;;16.12;58.01;103551.19;4867315;29;20044;-86
2023/01/22 08:58:01;;;;;;;11.07;3.92;;;;;;;16.12;58.03;103551.19;4886215;29;20066;-85
2023/01/22 09:00:26;;;;;;;14.65;4.00;;;;;;;16.12;57.99;103546.84;4882758;29;20033;-86
2023/01/22 09:02:57;;;;;;;12.30;4.22;;;;;;;16.13;58.16;103542.53;4879782;29;20108;-85
2023/01/22 09:05:22;;;;;;;9.30;3.90;;;;;;;16.13;57.92;103543.41;4928822;24;20062;-84
2023/01/22 09:07:48;;;;;;;10.70;3.70;;;;;;;16.13;57.59;103542.53;4879019;29;20133;-84
2023/01/22 09:10:13;;;;;;;9.07;3.83;;;;;;;16.13;57.68;103548.63;4863209;29;20456;-85
2023/01/22 09:12:39;;;;;;;9.75;4.00;;;;;;;16.14;57.89;103550.41;4848067;29;20130;-85
2023/01/22 09:15:06;;;;;;;8.48;3.60;;;;;;;16.14;57.75;103558.19;4861466;29;20025;-84
2023/01/22 09:17:31;;;;;;;13.60;3.75;;;;;;;16.14;57.55;103558.19;4881347;29;20037;-84
2023/01/22 09:19:57;;;;;;;8.55;3.80;;;;;;;16.14;57.71;103555.59;4863764;29;20052;-83
2023/01/22 09:22:22;;;;;;;9.40;3.30;;;;;;;16.14;57.38;103571.19;4846111;29;20057;-85
2023/01/22 09:24:47;;;;;;;10.85;3.88;;;;;;;16.15;57.49;103564.28;4861830;29;20038;-84
2023/01/22 09:27:16;;;;;;;7.72;3.22;;;;;;;16.15;57.39;103565.16;4865909;29;20037;-83
2023/01/22 09:29:43;;;;;;;7.82;3.22;;;;;;;16.16;57.58;103558.28;4874672;29;20033;-85
2023/01/22 09:32:11;;;;;;;6.70;3.20;;;;;;;16.16;57.23;103550.47;4879778;29;20070;-85
2023/01/22 09:34:45;;;;;;;7.20;2.90;;;;;;;16.16;57.35;103547.88;4883755;29;20037;-84
2023/01/22 09:37:11;;;;;;;6.13;3.05;;;;;;;16.16;57.33;103550.47;4874886;29;20049;-82
2023/01/22 09:39:36;;;;;;;7.43;2.88;;;;;;;16.17;57.08;103549.63;4877241;29;20037;-83
2023/01/22 09:42:03;;;;;;;13.57;2.95;;;;;;;16.19;57.17;103553.19;4875260;29;20045;-83
2023/01/22 09:44:39;;;;;;;7.07;2.97;;;;;;;16.18;57.00;103554.03;4873760;29;20064;-83
2023/01/22 09:47:14;;;;;;;7.13;2.90;;;;;;;16.19;57.03;103559.25;4875966;29;20065;-82
2023/01/22 09:49:53;;;;;;;6.10;2.92;;;;;;;16.20;56.95;103565.31;4873357;29;20038;-84
2023/01/22 09:52:19;;;;;;;7.05;2.85;;;;;;;16.19;56.94;103564.44;4877766;29;20044;-84
2023/01/22 09:54:45;;;;;;;6.50;2.40;;;;;;;16.20;56.85;103568.84;4882160;29;20029;-84
2023/01/22 09:57:14;;;;;;;5.28;2.60;;;;;;;16.19;56.85;103574.84;4881522;29;20442;-84
2023/01/22 09:59:47;;;;;;;5.05;2.42;;;;;;;16.20;56.72;103586.13;4877831;29;20069;-84
2023/01/22 10:02:37;;;;;;;5.65;2.53;;;;;;;16.21;56.86;103585.31;4879997;29;20027;-83
2023/01/22 10:05:18;;;;;;;5.68;2.60;;;;;;;16.20;56.58;103580.91;4880585;29;20136;-83
2023/01/22 10:08:01;;;;;;;6.20;3.08;;;;;;;16.21;56.44;103580.09;4882200;29;20053;-83
2023/01/22 10:13:23;;;;;;;3.78;2.05;;;;;;;16.22;56.75;103582.78;5687414;23;20050;-84
2023/01/22 10:15:51;;;;;;;6.20;2.38;;;;;;;16.23;56.59;103573.25;5033853;24;20053;-87
2023/01/22 10:18:40;;;;;;;7.60;2.40;;;;;;;16.24;56.38;103580.22;4864018;29;20024;-87
2023/01/22 10:21:17;;;;;;;4.82;2.20;;;;;;;16.24;56.40;103573.34;4865556;29;20068;-87
2023/01/22 10:23:47;;;;;;;4.07;1.90;;;;;;;16.25;56.51;103574.22;4867796;29;20040;-86
2023/01/22 10:26:17;;;;;;;3.75;1.90;;;;;;;16.25;56.49;103579.41;4853436;29;20014;-87
2023/01/22 10:28:49;;;;;;;4.05;2.28;;;;;;;16.24;56.40;103581.13;4867989;29;20037;-87
2023/01/22 10:31:32;;;;;;;4.47;2.10;;;;;;;16.25;56.38;103579.41;4868117;29;20037;-86
2023/01/22 10:34:00;;;;;;;4.47;2.00;;;;;;;16.26;56.49;103581.16;4868243;29;20048;-86
2023/01/22 10:36:29;;;;;;;3.17;1.75;;;;;;;16.26;56.16;103581.16;4881740;29;20105;-87
2023/01/22 10:39:15;;;;;;;5.45;2.08;;;;;;;16.27;56.07;103582.97;4863630;29;20052;-87
2023/01/22 10:41:42;;;;;;;3.90;1.67;;;;;;;16.28;56.30;103573.44;4848386;29;20038;-87
2023/01/22 10:44:21;;;;;;;4.38;1.83;;;;;;;16.31;56.01;103578.75;4864476;29;20057;-87
2023/01/22 10:46:49;;;;;;;2.88;1.73;;;;;;;16.33;55.89;103574.50;4861999;29;20037;-87
2023/01/22 10:49:26;;;;;;;4.28;1.80;;;;;;;16.33;55.66;103571.91;4866135;29;20022;-85
2023/01/22 10:51:56;;;;;;;7.43;2.17;;;;;;;16.32;55.77;103571.03;4865339;29;20018;-85
2023/01/22 10:54:40;;;;;;;3.70;1.80;;;;;;;16.31;55.80;103571.88;4841620;29;20042;-84
2023/01/22 10:57:21;;;;;;;5.15;1.88;;;;;;;16.31;55.73;103563.16;4864949;29;20038;-85
2023/01/22 10:59:50;;;;;;;5.43;2.00;;;;;;;16.32;55.99;103559.75;4861221;29;20038;-85
2023/01/22 11:02:24;;;;;;;4.93;1.67;;;;;;;16.32;55.95;103562.34;4860975;29;20556;-85
2023/01/22 11:04:50;;;;;;;2.88;1.60;;;;;;;16.33;56.08;103558.91;4864711;29;20021;-86
2023/01/22 11:07:27;;;;;;;3.33;1.60;;;;;;;16.33;55.83;103559.81;4867394;29;20049;-84
2023/01/22 11:09:56;;;;;;;3.85;1.67;;;;;;;16.33;56.08;103558.91;4868380;29;20128;-86
2023/01/22 11:12:32;;;;;;;3.58;1.70;;;;;;;16.34;55.92;103558.97;4868166;29;20021;-85
2023/01/22 11:17:46;;;;;;;2.70;1.63;;;;;;;16.35;55.95;103552.97;5260839;23;20049;-86
2023/01/22 11:20:20;;;;;;;;;;;;;;;16.35;56.07;103547.78;4881244;29;20117;-84
2023/01/22 11:23:09;;;;;;;3.00;1.40;;;;;;;16.37;55.74;103550.41;4880459;29;19919;-85
2023/01/22 11:25:57;;;;;;;2.70;1.30;;;;;;;16.37;56.07;103540.88;4880652;29;20053;-85
2023/01/22 11:31:19;;;;;;;3.03;1.70;;;;;;;16.38;56.05;103547.88;4978737;23;20064;-85
2023/01/22 11:34:13;;;;;;;2.80;1.35;;;;;;;16.37;56.22;103543.50;4863894;29;20121;-85
2023/01/22 11:36:45;;;;;;;2.80;1.40;;;;;;;16.39;56.07;103536.63;4859860;29;20049;-85
2023/01/22 11:39:28;;;;;;;3.47;1.40;;;;;;;16.40;56.26;103533.22;4862829;29;20361;-85
2023/01/22 11:41:56;;;;;;;2.63;1.40;;;;;;;16.40;56.22;103525.44;4862914;29;20065;-84
2023/01/22 11:44:40;;;;;;;3.70;1.27;;;;;;;16.43;56.30;103532.47;4866322;29;20123;-87
2023/01/22 11:47:32;;;;;;;4.38;1.48;;;;;;;16.43;56.20;103532.47;4866891;29;20094;-85
2023/01/22 11:50:34;;;;;;;3.17;1.25;;;;;;;16.44;56.41;103531.66;4863961;29;20043;-85
2023/01/22 11:53:37;;;;;;;2.65;1.38;;;;;;;16.47;56.29;103526.56;4859081;29;20024;-86
2023/01/22 11:59:47;;;;;;;2.78;1.10;;;;;;;16.51;56.25;103528.44;4882359;29;20067;-86
2023/01/22 12:05:47;;;;;;;6.05;1.23;;;;;;;16.51;56.34;103525.84;4881497;29;20081;-84